sensor_id;sensor_type;location;lat;lon;timestamp;temperature;humidity
62583;DHT22;48641;51.676;5.808;2022-08-19T00:00:16;24.50;56.50
62583;DHT22;48641;51.676;5.808;2022-08-19T00:02:42;24.50;56.50
62583;DHT22;48641;51.676;5.808;2022-08-19T00:05:09;24.50;56.40
62583;DHT22;48641;51.676;5.808;2022-08-19T00:07:36;24.50;56.50
62583;DHT22;48641;51.676;5.808;2022-08-19T00:10:04;24.50;56.50
62583;DHT22;48641;51.676;5.808;2022-08-19T00:12:30;24.50;56.50
62583;DHT22;48641;51.676;5.808;2022-08-19T00:14:55;24.50;56.50
62583;DHT22;48641;51.676;5.808;2022-08-19T00:17:21;24.50;56.50
62583;DHT22;48641;51.676;5.808;2022-08-19T00:19:47;24.50;56.40
62583;DHT22;48641;51.676;5.808;2022-08-19T00:22:12;24.50;56.40
62583;DHT22;48641;51.676;5.808;2022-08-19T00:24:38;24.40;56.30
62583;DHT22;48641;51.676;5.808;2022-08-19T00:27:04;24.50;56.40
62583;DHT22;48641;51.676;5.808;2022-08-19T00:29:30;24.50;56.30
62583;DHT22;48641;51.676;5.808;2022-08-19T00:31:56;24.40;56.20
62583;DHT22;48641;51.676;5.808;2022-08-19T00:34:24;24.50;56.30
62583;DHT22;48641;51.676;5.808;2022-08-19T00:36:53;24.40;56.20
62583;DHT22;48641;51.676;5.808;2022-08-19T00:39:19;24.40;56.20
62583;DHT22;48641;51.676;5.808;2022-08-19T00:41:46;24.40;56.30
62583;DHT22;48641;51.676;5.808;2022-08-19T00:44:24;24.40;56.30
62583;DHT22;48641;51.676;5.808;2022-08-19T00:46:52;24.40;56.20
62583;DHT22;48641;51.676;5.808;2022-08-19T00:49:29;24.40;56.30
62583;DHT22;48641;51.676;5.808;2022-08-19T00:52:07;24.40;56.20
62583;DHT22;48641;51.676;5.808;2022-08-19T00:54:36;24.40;56.20
62583;DHT22;48641;51.676;5.808;2022-08-19T00:57:06;24.40;56.20
62583;DHT22;48641;51.676;5.808;2022-08-19T00:59:35;24.40;56.20
62583;DHT22;48641;51.676;5.808;2022-08-19T01:02:01;24.40;56.20
62583;DHT22;48641;51.676;5.808;2022-08-19T01:04:27;24.30;56.20
62583;DHT22;48641;51.676;5.808;2022-08-19T01:06:53;24.20;56.40
62583;DHT22;48641;51.676;5.808;2022-08-19T01:09:18;24.20;57.30
62583;DHT22;48641;51.676;5.808;2022-08-19T01:11:44;24.20;56.30
62583;DHT22;48641;51.676;5.808;2022-08-19T01:14:11;24.20;56.30
62583;DHT22;48641;51.676;5.808;2022-08-19T01:16:39;24.20;56.20
62583;DHT22;48641;51.676;5.808;2022-08-19T01:19:30;24.20;56.20
62583;DHT22;48641;51.676;5.808;2022-08-19T01:22:03;24.20;56.10
62583;DHT22;48641;51.676;5.808;2022-08-19T01:24:30;24.20;56.20
62583;DHT22;48641;51.676;5.808;2022-08-19T01:26:56;24.20;56.20
62583;DHT22;48641;51.676;5.808;2022-08-19T01:29:21;24.20;56.20
62583;DHT22;48641;51.676;5.808;2022-08-19T01:31:47;24.20;56.10
62583;DHT22;48641;51.676;5.808;2022-08-19T01:34:18;24.20;56.10
62583;DHT22;48641;51.676;5.808;2022-08-19T01:36:46;24.20;56.00
62583;DHT22;48641;51.676;5.808;2022-08-19T01:39:18;24.20;55.90
62583;DHT22;48641;51.676;5.808;2022-08-19T01:41:45;24.20;55.90
62583;DHT22;48641;51.676;5.808;2022-08-19T01:44:10;24.20;56.00
62583;DHT22;48641;51.676;5.808;2022-08-19T01:46:36;24.20;55.90
62583;DHT22;48641;51.676;5.808;2022-08-19T01:49:04;24.20;55.90
62583;DHT22;48641;51.676;5.808;2022-08-19T01:51:31;24.20;55.90
62583;DHT22;48641;51.676;5.808;2022-08-19T01:53:57;24.20;55.90
62583;DHT22;48641;51.676;5.808;2022-08-19T01:56:24;24.20;55.90
62583;DHT22;48641;51.676;5.808;2022-08-19T01:58:54;24.20;55.90
62583;DHT22;48641;51.676;5.808;2022-08-19T02:01:20;24.20;55.90
62583;DHT22;48641;51.676;5.808;2022-08-19T02:03:46;24.20;55.80
62583;DHT22;48641;51.676;5.808;2022-08-19T02:06:12;24.20;55.80
62583;DHT22;48641;51.676;5.808;2022-08-19T02:08:39;24.20;55.70
62583;DHT22;48641;51.676;5.808;2022-08-19T02:11:06;24.20;55.60
62583;DHT22;48641;51.676;5.808;2022-08-19T02:13:32;24.10;55.60
62583;DHT22;48641;51.676;5.808;2022-08-19T02:15:58;24.20;55.60
62583;DHT22;48641;51.676;5.808;2022-08-19T02:18:24;24.10;55.60
62583;DHT22;48641;51.676;5.808;2022-08-19T02:20:50;24.10;55.50
62583;DHT22;48641;51.676;5.808;2022-08-19T02:23:16;24.10;55.50
62583;DHT22;48641;51.676;5.808;2022-08-19T02:25:46;24.10;55.50
62583;DHT22;48641;51.676;5.808;2022-08-19T02:28:13;24.10;55.50
62583;DHT22;48641;51.676;5.808;2022-08-19T02:30:41;24.10;55.50
62583;DHT22;48641;51.676;5.808;2022-08-19T02:33:06;24.10;55.60
62583;DHT22;48641;51.676;5.808;2022-08-19T02:35:32;24.10;55.60
62583;DHT22;48641;51.676;5.808;2022-08-19T02:37:58;24.10;55.60
62583;DHT22;48641;51.676;5.808;2022-08-19T02:40:49;24.00;55.50
62583;DHT22;48641;51.676;5.808;2022-08-19T02:43:16;24.00;55.40
62583;DHT22;48641;51.676;5.808;2022-08-19T02:45:42;24.00;55.50
62583;DHT22;48641;51.676;5.808;2022-08-19T02:48:08;24.00;55.50
62583;DHT22;48641;51.676;5.808;2022-08-19T02:50:38;24.00;55.50
62583;DHT22;48641;51.676;5.808;2022-08-19T02:53:04;24.00;55.40
62583;DHT22;48641;51.676;5.808;2022-08-19T02:55:30;24.00;55.40
62583;DHT22;48641;51.676;5.808;2022-08-19T02:57:56;24.00;55.40
62583;DHT22;48641;51.676;5.808;2022-08-19T03:00:22;23.90;55.30
62583;DHT22;48641;51.676;5.808;2022-08-19T03:02:49;24.00;55.40
62583;DHT22;48641;51.676;5.808;2022-08-19T03:05:15;23.90;55.40
62583;DHT22;48641;51.676;5.808;2022-08-19T03:07:40;24.00;55.40
62583;DHT22;48641;51.676;5.808;2022-08-19T03:10:07;23.90;55.40
62583;DHT22;48641;51.676;5.808;2022-08-19T03:12:36;23.90;55.30
62583;DHT22;48641;51.676;5.808;2022-08-19T03:15:03;23.90;55.30
62583;DHT22;48641;51.676;5.808;2022-08-19T03:17:29;24.00;55.30
62583;DHT22;48641;51.676;5.808;2022-08-19T03:19:54;23.90;55.20
62583;DHT22;48641;51.676;5.808;2022-08-19T03:22:20;23.90;55.20
62583;DHT22;48641;51.676;5.808;2022-08-19T03:24:45;23.90;55.20
62583;DHT22;48641;51.676;5.808;2022-08-19T03:27:11;23.90;55.20
62583;DHT22;48641;51.676;5.808;2022-08-19T03:29:37;23.90;55.10
62583;DHT22;48641;51.676;5.808;2022-08-19T03:32:05;23.90;55.10
62583;DHT22;48641;51.676;5.808;2022-08-19T03:34:33;23.90;55.10
62583;DHT22;48641;51.676;5.808;2022-08-19T03:37:09;23.90;55.10
62583;DHT22;48641;51.676;5.808;2022-08-19T03:39:37;23.90;55.10
62583;DHT22;48641;51.676;5.808;2022-08-19T03:42:03;23.80;55.10
62583;DHT22;48641;51.676;5.808;2022-08-19T03:44:30;23.80;55.20
62583;DHT22;48641;51.676;5.808;2022-08-19T03:46:57;23.80;55.20
62583;DHT22;48641;51.676;5.808;2022-08-19T03:49:26;23.80;55.20
62583;DHT22;48641;51.676;5.808;2022-08-19T03:51:53;23.80;55.20
62583;DHT22;48641;51.676;5.808;2022-08-19T03:54:20;23.80;55.20
62583;DHT22;48641;51.676;5.808;2022-08-19T03:56:49;23.70;55.40
62583;DHT22;48641;51.676;5.808;2022-08-19T03:59:25;23.80;55.50
62583;DHT22;48641;51.676;5.808;2022-08-19T04:01:53;23.80;55.50
62583;DHT22;48641;51.676;5.808;2022-08-19T04:04:19;23.80;55.50
62583;DHT22;48641;51.676;5.808;2022-08-19T04:06:45;23.70;55.40
62583;DHT22;48641;51.676;5.808;2022-08-19T04:09:12;23.80;55.40
62583;DHT22;48641;51.676;5.808;2022-08-19T04:11:42;23.70;55.40
62583;DHT22;48641;51.676;5.808;2022-08-19T04:14:09;23.80;55.40
62583;DHT22;48641;51.676;5.808;2022-08-19T04:16:35;23.70;55.40
62583;DHT22;48641;51.676;5.808;2022-08-19T04:19:02;23.80;55.40
62583;DHT22;48641;51.676;5.808;2022-08-19T04:21:28;23.80;55.40
62583;DHT22;48641;51.676;5.808;2022-08-19T04:23:54;23.80;55.50
62583;DHT22;48641;51.676;5.808;2022-08-19T04:26:23;23.80;56.40
62583;DHT22;48641;51.676;5.808;2022-08-19T04:28:49;23.80;55.30
62583;DHT22;48641;51.676;5.808;2022-08-19T04:31:19;23.80;55.30
62583;DHT22;48641;51.676;5.808;2022-08-19T04:33:44;23.80;55.30
62583;DHT22;48641;51.676;5.808;2022-08-19T04:36:22;23.80;55.30
62583;DHT22;48641;51.676;5.808;2022-08-19T04:38:49;23.80;55.20
62583;DHT22;48641;51.676;5.808;2022-08-19T04:41:16;23.70;55.20
62583;DHT22;48641;51.676;5.808;2022-08-19T04:44:00;23.70;55.20
62583;DHT22;48641;51.676;5.808;2022-08-19T04:46:28;23.70;55.30
62583;DHT22;48641;51.676;5.808;2022-08-19T04:48:55;23.70;55.20
62583;DHT22;48641;51.676;5.808;2022-08-19T04:51:22;23.70;55.30
62583;DHT22;48641;51.676;5.808;2022-08-19T04:53:48;23.70;55.30
62583;DHT22;48641;51.676;5.808;2022-08-19T04:56:16;23.70;55.30
62583;DHT22;48641;51.676;5.808;2022-08-19T04:58:44;23.70;55.30
62583;DHT22;48641;51.676;5.808;2022-08-19T05:01:12;23.70;55.40
62583;DHT22;48641;51.676;5.808;2022-08-19T05:03:39;23.70;55.40
62583;DHT22;48641;51.676;5.808;2022-08-19T05:06:14;23.70;55.40
62583;DHT22;48641;51.676;5.808;2022-08-19T05:08:41;23.70;55.40
62583;DHT22;48641;51.676;5.808;2022-08-19T05:11:12;23.70;55.50
62583;DHT22;48641;51.676;5.808;2022-08-19T05:13:38;23.70;55.60
62583;DHT22;48641;51.676;5.808;2022-08-19T05:16:05;23.60;55.60
62583;DHT22;48641;51.676;5.808;2022-08-19T05:18:30;23.60;55.60
62583;DHT22;48641;51.676;5.808;2022-08-19T05:21:17;23.60;55.70
62583;DHT22;48641;51.676;5.808;2022-08-19T05:24:03;23.60;55.80
62583;DHT22;48641;51.676;5.808;2022-08-19T05:26:29;23.60;55.80
62583;DHT22;48641;51.676;5.808;2022-08-19T05:28:55;23.60;55.90
62583;DHT22;48641;51.676;5.808;2022-08-19T05:31:21;23.60;55.90
62583;DHT22;48641;51.676;5.808;2022-08-19T05:33:47;23.60;55.90
62583;DHT22;48641;51.676;5.808;2022-08-19T05:36:12;23.60;55.90
62583;DHT22;48641;51.676;5.808;2022-08-19T05:38:39;23.60;56.00
62583;DHT22;48641;51.676;5.808;2022-08-19T05:41:12;23.60;56.00
62583;DHT22;48641;51.676;5.808;2022-08-19T05:43:38;23.60;56.00
62583;DHT22;48641;51.676;5.808;2022-08-19T05:46:05;23.60;56.10
62583;DHT22;48641;51.676;5.808;2022-08-19T05:48:34;23.60;56.20
62583;DHT22;48641;51.676;5.808;2022-08-19T05:51:04;23.60;56.20
62583;DHT22;48641;51.676;5.808;2022-08-19T05:53:32;23.60;57.20
62583;DHT22;48641;51.676;5.808;2022-08-19T05:56:11;23.60;56.50
62583;DHT22;48641;51.676;5.808;2022-08-19T05:58:38;23.60;56.60
62583;DHT22;48641;51.676;5.808;2022-08-19T06:01:09;23.60;56.70
62583;DHT22;48641;51.676;5.808;2022-08-19T06:03:35;23.60;56.80
62583;DHT22;48641;51.676;5.808;2022-08-19T06:06:06;23.60;56.90
62583;DHT22;48641;51.676;5.808;2022-08-19T06:08:33;23.60;56.90
62583;DHT22;48641;51.676;5.808;2022-08-19T06:11:21;23.60;56.80
62583;DHT22;48641;51.676;5.808;2022-08-19T06:13:50;23.60;56.80
62583;DHT22;48641;51.676;5.808;2022-08-19T06:16:17;23.50;56.80
62583;DHT22;48641;51.676;5.808;2022-08-19T06:18:51;23.60;57.10
62583;DHT22;48641;51.676;5.808;2022-08-19T06:21:18;23.60;57.20
62583;DHT22;48641;51.676;5.808;2022-08-19T06:23:44;23.60;57.20
62583;DHT22;48641;51.676;5.808;2022-08-19T06:26:14;23.50;57.10
62583;DHT22;48641;51.676;5.808;2022-08-19T06:28:40;23.50;57.20
62583;DHT22;48641;51.676;5.808;2022-08-19T06:31:25;23.50;57.40
62583;DHT22;48641;51.676;5.808;2022-08-19T06:33:51;23.60;57.50
62583;DHT22;48641;51.676;5.808;2022-08-19T06:38:51;23.50;57.60
62583;DHT22;48641;51.676;5.808;2022-08-19T06:41:16;23.50;57.70
62583;DHT22;48641;51.676;5.808;2022-08-19T06:43:42;23.50;57.70
62583;DHT22;48641;51.676;5.808;2022-08-19T06:46:12;23.50;57.90
62583;DHT22;48641;51.676;5.808;2022-08-19T06:48:39;23.50;57.90
62583;DHT22;48641;51.676;5.808;2022-08-19T06:51:04;23.50;57.50
62583;DHT22;48641;51.676;5.808;2022-08-19T06:53:31;23.50;57.70
62583;DHT22;48641;51.676;5.808;2022-08-19T06:55:57;23.50;57.70
62583;DHT22;48641;51.676;5.808;2022-08-19T06:58:30;23.50;57.80
62583;DHT22;48641;51.676;5.808;2022-08-19T07:01:02;23.60;57.90
62583;DHT22;48641;51.676;5.808;2022-08-19T07:03:33;23.50;57.60
62583;DHT22;48641;51.676;5.808;2022-08-19T07:06:07;23.60;57.80
62583;DHT22;48641;51.676;5.808;2022-08-19T07:08:34;23.60;58.00
62583;DHT22;48641;51.676;5.808;2022-08-19T07:11:05;23.50;58.30
62583;DHT22;48641;51.676;5.808;2022-08-19T07:13:33;23.50;58.20
62583;DHT22;48641;51.676;5.808;2022-08-19T07:16:04;23.60;58.20
62583;DHT22;48641;51.676;5.808;2022-08-19T07:18:30;23.50;58.40
62583;DHT22;48641;51.676;5.808;2022-08-19T07:21:06;23.50;58.30
62583;DHT22;48641;51.676;5.808;2022-08-19T07:23:33;23.50;58.30
62583;DHT22;48641;51.676;5.808;2022-08-19T07:26:13;23.50;58.30
62583;DHT22;48641;51.676;5.808;2022-08-19T07:28:39;23.50;58.40
62583;DHT22;48641;51.676;5.808;2022-08-19T07:31:07;23.50;58.50
62583;DHT22;48641;51.676;5.808;2022-08-19T07:33:33;23.50;58.50
62583;DHT22;48641;51.676;5.808;2022-08-19T07:36:05;23.50;58.60
62583;DHT22;48641;51.676;5.808;2022-08-19T07:38:32;23.50;58.40
62583;DHT22;48641;51.676;5.808;2022-08-19T07:40:59;23.50;58.80
62583;DHT22;48641;51.676;5.808;2022-08-19T07:43:26;23.50;58.90
62583;DHT22;48641;51.676;5.808;2022-08-19T07:45:54;23.50;59.00
62583;DHT22;48641;51.676;5.808;2022-08-19T07:48:28;23.50;59.00
62583;DHT22;48641;51.676;5.808;2022-08-19T07:51:04;23.50;59.00
62583;DHT22;48641;51.676;5.808;2022-08-19T07:53:33;23.50;59.00
62583;DHT22;48641;51.676;5.808;2022-08-19T07:56:00;23.50;59.10
62583;DHT22;48641;51.676;5.808;2022-08-19T07:58:31;23.50;59.00
62583;DHT22;48641;51.676;5.808;2022-08-19T08:00:58;23.50;59.00
62583;DHT22;48641;51.676;5.808;2022-08-19T08:03:24;23.50;59.20
62583;DHT22;48641;51.676;5.808;2022-08-19T08:06:10;23.60;59.10
62583;DHT22;48641;51.676;5.808;2022-08-19T08:08:55;23.60;59.20
62583;DHT22;48641;51.676;5.808;2022-08-19T08:11:48;23.60;59.50
62583;DHT22;48641;51.676;5.808;2022-08-19T08:14:20;23.60;59.60
62583;DHT22;48641;51.676;5.808;2022-08-19T08:16:48;23.60;59.50
62583;DHT22;48641;51.676;5.808;2022-08-19T08:19:15;23.60;59.50
62583;DHT22;48641;51.676;5.808;2022-08-19T08:21:41;23.60;59.60
62583;DHT22;48641;51.676;5.808;2022-08-19T08:24:08;23.60;59.50
62583;DHT22;48641;51.676;5.808;2022-08-19T08:26:33;23.60;59.50
62583;DHT22;48641;51.676;5.808;2022-08-19T08:28:59;23.60;59.50
62583;DHT22;48641;51.676;5.808;2022-08-19T08:31:25;23.60;60.50
62583;DHT22;48641;51.676;5.808;2022-08-19T08:33:50;23.60;59.50
62583;DHT22;48641;51.676;5.808;2022-08-19T08:36:16;23.60;59.40
62583;DHT22;48641;51.676;5.808;2022-08-19T08:38:43;23.60;59.50
62583;DHT22;48641;51.676;5.808;2022-08-19T08:44:18;23.70;59.40
62583;DHT22;48641;51.676;5.808;2022-08-19T08:46:55;23.60;59.50
62583;DHT22;48641;51.676;5.808;2022-08-19T08:49:31;23.60;59.50
62583;DHT22;48641;51.676;5.808;2022-08-19T08:52:00;23.70;59.60
62583;DHT22;48641;51.676;5.808;2022-08-19T08:54:34;23.60;59.50
62583;DHT22;48641;51.676;5.808;2022-08-19T08:57:00;23.70;60.00
62583;DHT22;48641;51.676;5.808;2022-08-19T08:59:33;23.70;60.20
62583;DHT22;48641;51.676;5.808;2022-08-19T09:02:00;23.70;60.20
62583;DHT22;48641;51.676;5.808;2022-08-19T09:04:26;23.70;60.10
62583;DHT22;48641;51.676;5.808;2022-08-19T09:07:06;23.70;60.10
62583;DHT22;48641;51.676;5.808;2022-08-19T09:09:39;23.70;60.20
62583;DHT22;48641;51.676;5.808;2022-08-19T09:17:14;23.70;60.30
62583;DHT22;48641;51.676;5.808;2022-08-19T09:22:19;23.80;60.20
62583;DHT22;48641;51.676;5.808;2022-08-19T09:24:49;23.80;60.50
62583;DHT22;48641;51.676;5.808;2022-08-19T09:27:15;23.80;60.20
62583;DHT22;48641;51.676;5.808;2022-08-19T09:29:41;23.70;60.50
62583;DHT22;48641;51.676;5.808;2022-08-19T09:32:07;23.80;60.70
62583;DHT22;48641;51.676;5.808;2022-08-19T09:34:33;23.80;60.70
62583;DHT22;48641;51.676;5.808;2022-08-19T09:36:58;23.80;60.70
62583;DHT22;48641;51.676;5.808;2022-08-19T09:39:25;23.80;60.80
62583;DHT22;48641;51.676;5.808;2022-08-19T09:41:51;23.80;60.60
62583;DHT22;48641;51.676;5.808;2022-08-19T09:44:18;23.80;60.60
62583;DHT22;48641;51.676;5.808;2022-08-19T09:46:45;23.90;60.60
62583;DHT22;48641;51.676;5.808;2022-08-19T09:49:16;23.90;60.70
62583;DHT22;48641;51.676;5.808;2022-08-19T09:51:42;23.90;60.80
62583;DHT22;48641;51.676;5.808;2022-08-19T09:54:07;23.90;60.90
62583;DHT22;48641;51.676;5.808;2022-08-19T09:56:33;23.90;61.00
62583;DHT22;48641;51.676;5.808;2022-08-19T09:59:00;23.90;60.90
62583;DHT22;48641;51.676;5.808;2022-08-19T10:01:27;23.90;60.80
62583;DHT22;48641;51.676;5.808;2022-08-19T10:03:55;23.90;60.90
62583;DHT22;48641;51.676;5.808;2022-08-19T10:06:23;23.90;60.80
62583;DHT22;48641;51.676;5.808;2022-08-19T10:08:50;23.90;60.70
62583;DHT22;48641;51.676;5.808;2022-08-19T10:11:18;24.00;60.60
62583;DHT22;48641;51.676;5.808;2022-08-19T10:13:44;24.00;60.60
62583;DHT22;48641;51.676;5.808;2022-08-19T10:16:17;24.00;60.50
62583;DHT22;48641;51.676;5.808;2022-08-19T10:18:44;24.00;60.30
62583;DHT22;48641;51.676;5.808;2022-08-19T10:21:18;24.00;60.20
62583;DHT22;48641;51.676;5.808;2022-08-19T10:23:46;24.10;60.10
62583;DHT22;48641;51.676;5.808;2022-08-19T10:26:18;24.10;60.10
62583;DHT22;48641;51.676;5.808;2022-08-19T10:28:44;24.10;60.10
62583;DHT22;48641;51.676;5.808;2022-08-19T10:31:13;24.10;60.10
62583;DHT22;48641;51.676;5.808;2022-08-19T10:33:40;24.10;60.20
62583;DHT22;48641;51.676;5.808;2022-08-19T10:36:16;24.10;60.40
62583;DHT22;48641;51.676;5.808;2022-08-19T10:38:44;24.10;60.30
62583;DHT22;48641;51.676;5.808;2022-08-19T10:41:18;24.10;60.20
62583;DHT22;48641;51.676;5.808;2022-08-19T10:43:45;24.10;60.00
62583;DHT22;48641;51.676;5.808;2022-08-19T10:46:13;24.10;59.90
62583;DHT22;48641;51.676;5.808;2022-08-19T10:48:40;24.20;59.90
62583;DHT22;48641;51.676;5.808;2022-08-19T10:51:06;24.20;59.80
62583;DHT22;48641;51.676;5.808;2022-08-19T10:53:51;24.20;59.70
62583;DHT22;48641;51.676;5.808;2022-08-19T10:56:17;24.20;59.50
62583;DHT22;48641;51.676;5.808;2022-08-19T10:59:01;24.20;59.50
62583;DHT22;48641;51.676;5.808;2022-08-19T11:01:29;24.20;59.30
62583;DHT22;48641;51.676;5.808;2022-08-19T11:03:56;24.20;59.10
62583;DHT22;48641;51.676;5.808;2022-08-19T11:06:25;24.30;59.20
62583;DHT22;48641;51.676;5.808;2022-08-19T11:08:52;24.30;59.20
62583;DHT22;48641;51.676;5.808;2022-08-19T11:11:18;24.30;59.20
62583;DHT22;48641;51.676;5.808;2022-08-19T11:13:44;24.40;59.10
62583;DHT22;48641;51.676;5.808;2022-08-19T11:16:17;24.40;59.00
62583;DHT22;48641;51.676;5.808;2022-08-19T11:18:48;24.40;59.00
62583;DHT22;48641;51.676;5.808;2022-08-19T11:21:23;24.40;59.00
62583;DHT22;48641;51.676;5.808;2022-08-19T11:23:52;24.40;58.80
62583;DHT22;48641;51.676;5.808;2022-08-19T11:26:19;24.40;58.90
62583;DHT22;48641;51.676;5.808;2022-08-19T11:28:45;24.40;58.90
62583;DHT22;48641;51.676;5.808;2022-08-19T11:31:17;24.50;58.90
62583;DHT22;48641;51.676;5.808;2022-08-19T11:33:43;24.50;58.90
62583;DHT22;48641;51.676;5.808;2022-08-19T11:36:09;24.50;58.90
62583;DHT22;48641;51.676;5.808;2022-08-19T11:38:35;24.50;58.90
62583;DHT22;48641;51.676;5.808;2022-08-19T11:41:04;24.50;58.80
62583;DHT22;48641;51.676;5.808;2022-08-19T11:43:30;24.50;58.90
62583;DHT22;48641;51.676;5.808;2022-08-19T11:45:57;24.50;58.70
62583;DHT22;48641;51.676;5.808;2022-08-19T11:48:24;24.50;59.00
62583;DHT22;48641;51.676;5.808;2022-08-19T11:50:53;24.50;58.90
62583;DHT22;48641;51.676;5.808;2022-08-19T11:53:22;24.50;58.70
62583;DHT22;48641;51.676;5.808;2022-08-19T11:55:48;24.50;58.70
62583;DHT22;48641;51.676;5.808;2022-08-19T11:58:16;24.60;58.80
62583;DHT22;48641;51.676;5.808;2022-08-19T12:00:43;24.60;58.60
62583;DHT22;48641;51.676;5.808;2022-08-19T12:03:10;24.70;58.50
62583;DHT22;48641;51.676;5.808;2022-08-19T12:05:37;24.70;58.50
62583;DHT22;48641;51.676;5.808;2022-08-19T12:08:03;24.80;58.30
62583;DHT22;48641;51.676;5.808;2022-08-19T12:10:29;24.80;58.40
62583;DHT22;48641;51.676;5.808;2022-08-19T12:12:54;24.80;58.30
62583;DHT22;48641;51.676;5.808;2022-08-19T12:15:20;24.80;58.20
62583;DHT22;48641;51.676;5.808;2022-08-19T12:17:45;24.90;58.10
62583;DHT22;48641;51.676;5.808;2022-08-19T12:20:12;24.90;58.10
62583;DHT22;48641;51.676;5.808;2022-08-19T12:22:39;24.90;58.30
62583;DHT22;48641;51.676;5.808;2022-08-19T12:25:08;25.00;58.30
62583;DHT22;48641;51.676;5.808;2022-08-19T12:27:34;25.00;58.30
62583;DHT22;48641;51.676;5.808;2022-08-19T12:30:01;25.10;58.10
62583;DHT22;48641;51.676;5.808;2022-08-19T12:32:27;25.10;57.90
62583;DHT22;48641;51.676;5.808;2022-08-19T12:34:53;25.10;57.80
62583;DHT22;48641;51.676;5.808;2022-08-19T12:37:19;25.10;57.70
62583;DHT22;48641;51.676;5.808;2022-08-19T12:39:45;25.10;57.70
62583;DHT22;48641;51.676;5.808;2022-08-19T12:42:12;25.10;57.70
62583;DHT22;48641;51.676;5.808;2022-08-19T12:44:39;25.10;58.00
62583;DHT22;48641;51.676;5.808;2022-08-19T12:47:06;25.10;57.60
62583;DHT22;48641;51.676;5.808;2022-08-19T12:49:33;25.20;57.50
62583;DHT22;48641;51.676;5.808;2022-08-19T12:52:05;25.20;57.50
62583;DHT22;48641;51.676;5.808;2022-08-19T12:54:31;25.20;57.40
62583;DHT22;48641;51.676;5.808;2022-08-19T12:56:57;25.20;57.30
62583;DHT22;48641;51.676;5.808;2022-08-19T12:59:23;25.20;57.40
62583;DHT22;48641;51.676;5.808;2022-08-19T13:01:49;25.20;57.40
62583;DHT22;48641;51.676;5.808;2022-08-19T13:04:15;25.20;57.30
62583;DHT22;48641;51.676;5.808;2022-08-19T13:06:41;25.20;57.30
62583;DHT22;48641;51.676;5.808;2022-08-19T13:09:08;25.20;57.30
62583;DHT22;48641;51.676;5.808;2022-08-19T13:11:33;25.30;57.30
62583;DHT22;48641;51.676;5.808;2022-08-19T13:14:01;25.30;57.40
62583;DHT22;48641;51.676;5.808;2022-08-19T13:16:28;25.30;57.30
62583;DHT22;48641;51.676;5.808;2022-08-19T13:18:54;25.30;57.30
62583;DHT22;48641;51.676;5.808;2022-08-19T13:21:23;25.30;57.50
62583;DHT22;48641;51.676;5.808;2022-08-19T13:23:50;25.30;57.30
62583;DHT22;48641;51.676;5.808;2022-08-19T13:26:16;25.40;57.20
62583;DHT22;48641;51.676;5.808;2022-08-19T13:28:42;25.40;57.00
62583;DHT22;48641;51.676;5.808;2022-08-19T13:31:31;25.40;56.90
62583;DHT22;48641;51.676;5.808;2022-08-19T13:34:16;25.50;57.30
62583;DHT22;48641;51.676;5.808;2022-08-19T13:36:42;25.50;57.20
62583;DHT22;48641;51.676;5.808;2022-08-19T13:39:08;25.50;57.40
62583;DHT22;48641;51.676;5.808;2022-08-19T13:41:35;25.50;57.10
62583;DHT22;48641;51.676;5.808;2022-08-19T13:44:01;25.60;57.10
62583;DHT22;48641;51.676;5.808;2022-08-19T13:46:27;25.60;57.00
62583;DHT22;48641;51.676;5.808;2022-08-19T13:48:54;25.70;56.90
62583;DHT22;48641;51.676;5.808;2022-08-19T13:51:20;25.70;56.90
62583;DHT22;48641;51.676;5.808;2022-08-19T13:53:46;25.80;56.90
62583;DHT22;48641;51.676;5.808;2022-08-19T13:56:14;25.80;56.90
62583;DHT22;48641;51.676;5.808;2022-08-19T13:58:40;25.80;57.10
62583;DHT22;48641;51.676;5.808;2022-08-19T14:01:06;25.80;56.90
62583;DHT22;48641;51.676;5.808;2022-08-19T14:03:33;25.80;56.90
62583;DHT22;48641;51.676;5.808;2022-08-19T14:05:59;25.80;56.70
62583;DHT22;48641;51.676;5.808;2022-08-19T14:08:25;25.80;56.80
62583;DHT22;48641;51.676;5.808;2022-08-19T14:10:56;25.80;56.70
62583;DHT22;48641;51.676;5.808;2022-08-19T14:13:22;25.80;56.80
62583;DHT22;48641;51.676;5.808;2022-08-19T14:15:49;25.90;56.90
62583;DHT22;48641;51.676;5.808;2022-08-19T14:18:17;25.80;57.80
62583;DHT22;48641;51.676;5.808;2022-08-19T14:20:43;25.80;56.70
62583;DHT22;48641;51.676;5.808;2022-08-19T14:23:09;25.80;56.90
62583;DHT22;48641;51.676;5.808;2022-08-19T14:25:36;25.80;56.90
62583;DHT22;48641;51.676;5.808;2022-08-19T14:28:01;25.80;57.00
62583;DHT22;48641;51.676;5.808;2022-08-19T14:30:31;25.80;58.00
62583;DHT22;48641;51.676;5.808;2022-08-19T14:32:58;25.80;57.10
62583;DHT22;48641;51.676;5.808;2022-08-19T14:35:25;25.70;57.00
62583;DHT22;48641;51.676;5.808;2022-08-19T14:37:52;25.70;57.30
62583;DHT22;48641;51.676;5.808;2022-08-19T14:40:23;25.70;57.40
62583;DHT22;48641;51.676;5.808;2022-08-19T14:42:53;25.70;57.50
62583;DHT22;48641;51.676;5.808;2022-08-19T14:45:25;25.70;57.50
62583;DHT22;48641;51.676;5.808;2022-08-19T14:47:52;25.70;57.50
62583;DHT22;48641;51.676;5.808;2022-08-19T14:50:17;25.70;57.50
62583;DHT22;48641;51.676;5.808;2022-08-19T14:52:47;25.70;57.40
62583;DHT22;48641;51.676;5.808;2022-08-19T14:55:14;25.70;57.40
62583;DHT22;48641;51.676;5.808;2022-08-19T14:57:41;25.70;57.40
62583;DHT22;48641;51.676;5.808;2022-08-19T15:00:07;25.70;57.70
62583;DHT22;48641;51.676;5.808;2022-08-19T15:02:37;25.70;57.60
62583;DHT22;48641;51.676;5.808;2022-08-19T15:05:02;25.70;57.60
62583;DHT22;48641;51.676;5.808;2022-08-19T15:07:28;25.70;57.50
62583;DHT22;48641;51.676;5.808;2022-08-19T15:09:54;25.70;57.60
62583;DHT22;48641;51.676;5.808;2022-08-19T15:12:20;25.70;57.70
62583;DHT22;48641;51.676;5.808;2022-08-19T15:14:47;25.70;57.80
62583;DHT22;48641;51.676;5.808;2022-08-19T15:17:15;25.70;57.90
62583;DHT22;48641;51.676;5.808;2022-08-19T15:19:41;25.70;57.80
62583;DHT22;48641;51.676;5.808;2022-08-19T15:22:07;25.70;58.10
62583;DHT22;48641;51.676;5.808;2022-08-19T15:24:33;25.70;57.80
62583;DHT22;48641;51.676;5.808;2022-08-19T15:27:01;25.70;57.90
62583;DHT22;48641;51.676;5.808;2022-08-19T15:29:27;25.70;57.90
62583;DHT22;48641;51.676;5.808;2022-08-19T15:31:53;25.70;58.00
62583;DHT22;48641;51.676;5.808;2022-08-19T15:34:22;25.60;57.90
62583;DHT22;48641;51.676;5.808;2022-08-19T15:36:48;25.60;57.80
62583;DHT22;48641;51.676;5.808;2022-08-19T15:39:14;25.60;57.80
62583;DHT22;48641;51.676;5.808;2022-08-19T15:41:41;25.60;57.90
62583;DHT22;48641;51.676;5.808;2022-08-19T15:44:12;25.60;57.90
62583;DHT22;48641;51.676;5.808;2022-08-19T15:46:42;25.60;57.90
62583;DHT22;48641;51.676;5.808;2022-08-19T15:49:09;25.60;59.00